Flight Track Log - Related Links

Times and Time Zones

All times are in EDT time to prevent confusion due to time zone crossing. See the BER6771 flight status page for this flight to view local times or setup timezone preferences in your user account.

Time Position Orientation Groundspeed Altitude Reporting Facility
EDT Latitude Longitude Course Direction KTS MPH feet Rate Location/Type
Tue 01:27:00 AM 50.1686 9.5469 305° West  Level Estimated
Tue 01:28:00 AM 50.2098 9.4498 304° West  Level Estimated
Tue 01:29:00 AM 50.2509 9.3525 303° West  Level Estimated
Tue 01:30:00 AM 50.2920 9.2550 303° West  Level Estimated
Tue 01:31:00 AM 50.3329 9.1574 303° West  Level Estimated
Tue 01:32:00 AM 50.3738 9.0596 303° West  Level Estimated
Tue 01:33:00 AM 50.4146 8.9617 303° West  Level Estimated
Tue 01:34:00 AM 50.4553 8.8635 303° West  Level Estimated
Tue 01:35:00 AM 50.4959 8.7653 303° West  Level Estimated
Tue 01:36:00 AM 50.5365 8.6668 303° West  Level Estimated
Tue 01:37:00 AM 50.5769 8.5682 303° West  Level Estimated
Tue 01:38:00 AM 50.6173 8.4694 303° West  Level Estimated
Tue 01:39:00 AM 50.6576 8.3704 303° West  Level Estimated
Tue 01:40:00 AM 50.6978 8.2712 303° West  Level Estimated
Tue 01:41:00 AM 50.7379 8.1719 303° West  Level Estimated
Tue 01:42:00 AM 50.7780 8.0725 303° West  Level Estimated
Tue 01:43:00 AM 50.8179 7.9728 302° West  Level Estimated
Tue 01:44:00 AM 50.8578 7.8730 302° West  Level Estimated
Tue 01:45:00 AM 50.8975 7.7730 302° West  Level Estimated
Tue 01:46:00 AM 50.9372 7.6728 302° West  Level Estimated
Tue 01:47:00 AM 50.9769 7.5725 302° West  Level Estimated
Tue 01:48:00 AM 51.0164 7.4720 302° West  Level Estimated
Tue 01:49:00 AM 51.0558 7.3713 302° West  Level Estimated
Tue 01:50:00 AM 51.0952 7.2705 302° West  Level Estimated
Tue 01:51:00 AM 51.1344 7.1695 302° West  Level Estimated
Tue 01:52:00 AM 51.1736 7.0683 302° West  Level Estimated
Tue 01:53:00 AM 51.2127 6.9669 302° West  Level Estimated
Tue 01:54:00 AM 51.2517 6.8654 302° West  Level Estimated
Tue 01:55:00 AM 51.2895 6.7668 301° West  Level Estimated
Tue 01:56:00 AM 51.2895 6.7668 314° West  Level Estimated
Tue 01:57:00 AM 51.2895 6.7668 46° Northeast  Level Estimated
Tue 01:58:00 AM 51.2895 6.7668 314° West  Level Estimated
Tue 01:59:00 AM 51.2895 6.7668 46° Northeast  Level Estimated
Tue 02:00:00 AM 51.2895 6.7668 314° West  Level Estimated
Tue 02:01:00 AM 51.2895 6.7668 46° Northeast  Level Estimated
Tue 02:02:00 AM 51.2895 6.7668 314° West  Level Estimated
Tue 02:03:00 AM 51.2895 6.7668 46° Northeast  Level Estimated
Tue 02:04:00 AM 51.2895 6.7668 314° West  Level Estimated
Tue 02:05:00 AM 51.2895 6.7668 46° Northeast  Level Estimated
Tue 02:06:00 AM 51.2895 6.7668 314° West  Level Estimated
Tue 02:07:00 AM 51.2895 6.7668 46° Northeast  Level Estimated
Tue 02:08:00 AM 51.2895 6.7668 314° West  Level Estimated
Tue 02:09:00 AM 51.2895 6.7668 46° Northeast  Level Estimated
Tue 02:10:00 AM 51.2895 6.7668 314° West  Level Estimated
Tue 02:11:00 AM 51.2895 6.7668 46° Northeast  Level Estimated

Login

Don't have an account? Register now (free) for customized features, flight alerts, and more!